createdAt,value
2023-05-07T00:00:21.690Z,93195.19
2023-05-07T00:01:53.496Z,93192.03
2023-05-07T00:03:25.222Z,93192.66
2023-05-07T00:04:57.347Z,93189.47
2023-05-07T00:06:30.077Z,93194.38
2023-05-07T00:08:02.216Z,93195.00
2023-05-07T00:09:33.944Z,93192.59
2023-05-07T00:11:05.817Z,93188.50
2023-05-07T00:12:37.358Z,93184.38
2023-05-07T00:14:08.856Z,93191.06
2023-05-07T00:15:40.481Z,93184.09
2023-05-07T00:17:12.258Z,93195.97
2023-05-07T00:18:44.434Z,93189.00
2023-05-07T00:20:16.698Z,93189.47
2023-05-07T00:21:48.584Z,93194.25
2023-05-07T00:23:20.260Z,93190.88
2023-05-07T00:24:52.081Z,93189.91
2023-05-07T00:26:23.666Z,93188.50
2023-05-07T00:27:55.544Z,93188.19
2023-05-07T00:29:27.181Z,93190.56
2023-05-07T00:30:58.881Z,93194.25
2023-05-07T00:32:30.513Z,93189.16
2023-05-07T00:34:02.521Z,93192.81
2023-05-07T00:35:34.108Z,93189.31
2023-05-07T00:37:06.774Z,93191.72
2023-05-07T00:38:38.498Z,93188.53
2023-05-07T00:40:10.984Z,93189.28
2023-05-07T00:41:43.128Z,93192.16
2023-05-07T00:43:14.991Z,93187.66
2023-05-07T00:44:46.843Z,93192.72
2023-05-07T00:46:18.695Z,93192.84
2023-05-07T00:47:50.370Z,93195.47
2023-05-07T00:49:22.183Z,93195.09
2023-05-07T00:50:53.926Z,93200.47
2023-05-07T00:52:26.170Z,93191.13
2023-05-07T00:53:57.729Z,93196.81
2023-05-07T00:55:29.635Z,93195.22
2023-05-07T00:57:01.647Z,93198.22
2023-05-07T00:58:33.639Z,93198.84
2023-05-07T01:00:05.687Z,93189.97
2023-05-07T01:01:38.060Z,93195.34
2023-05-07T01:03:09.745Z,93196.78
2023-05-07T01:04:42.019Z,93196.59
2023-05-07T01:06:17.693Z,93203.38
2023-05-07T01:07:49.956Z,93193.84
2023-05-07T01:09:21.718Z,93200.75
2023-05-07T01:10:53.524Z,93197.69
2023-05-07T01:12:25.059Z,93208.25
2023-05-07T01:13:56.655Z,93202.22
2023-05-07T01:15:28.381Z,93203.34
2023-05-07T01:17:00.555Z,93207.28
2023-05-07T01:18:32.280Z,93202.50
2023-05-07T01:20:05.969Z,93204.69
2023-05-07T01:21:38.299Z,93199.44
2023-05-07T01:23:09.854Z,93200.53
2023-05-07T01:24:41.495Z,93199.72
2023-05-07T01:26:13.150Z,93200.69
2023-05-07T01:27:44.805Z,93194.72
2023-05-07T01:29:16.594Z,93200.59
2023-05-07T01:30:50.507Z,93193.63
2023-05-07T01:32:23.220Z,93200.31
2023-05-07T01:33:55.037Z,93196.31
2023-05-07T01:35:28.679Z,93194.41
2023-05-07T01:37:00.357Z,93196.00
2023-05-07T01:38:32.049Z,93192.81
2023-05-07T01:40:03.962Z,93196.63
2023-05-07T01:41:35.659Z,93195.63
2023-05-07T01:43:07.236Z,93190.25
2023-05-07T01:44:38.982Z,93192.47
2023-05-07T01:46:11.530Z,93187.69
2023-05-07T01:47:43.291Z,93179.91
2023-05-07T01:49:15.487Z,93177.50
2023-05-07T01:50:47.387Z,93191.25
2023-05-07T01:52:18.971Z,93181.13
2023-05-07T01:53:51.915Z,93181.59
2023-05-07T01:55:23.767Z,93181.72
2023-05-07T01:56:56.923Z,93174.16
2023-05-07T01:58:28.401Z,93173.81
2023-05-07T02:00:00.996Z,93178.75
2023-05-07T02:01:32.701Z,93178.53
2023-05-07T02:03:04.823Z,93169.16
2023-05-07T02:04:36.552Z,93172.47
2023-05-07T02:06:08.174Z,93173.09
2023-05-07T02:07:39.708Z,93172.38
2023-05-07T02:09:11.792Z,93175.38
2023-05-07T02:10:43.673Z,93162.25
2023-05-07T02:12:15.286Z,93164.75
2023-05-07T02:13:46.839Z,93159.16
2023-05-07T02:15:18.619Z,93162.75
2023-05-07T02:16:50.979Z,93155.28
2023-05-07T02:18:23.145Z,93159.25
2023-05-07T02:19:55.560Z,93152.97
2023-05-07T02:21:28.391Z,93159.72
2023-05-07T02:23:01.691Z,93159.25
2023-05-07T02:24:33.328Z,93154.16
2023-05-07T02:26:06.140Z,93160.66
2023-05-07T02:27:37.833Z,93151.47
2023-05-07T02:29:09.799Z,93154.25
2023-05-07T02:30:41.744Z,93155.47
2023-05-07T02:32:13.896Z,93162.53
2023-05-07T02:33:46.503Z,93166.63
2023-05-07T02:35:18.409Z,93167.03
2023-05-07T02:36:50.641Z,93169.81
2023-05-07T02:38:22.130Z,93159.69
2023-05-07T02:39:54.724Z,93166.94
2023-05-07T02:41:26.227Z,93168.34
2023-05-07T02:42:57.867Z,93161.66
2023-05-07T02:44:32.612Z,93158.28
2023-05-07T02:46:04.959Z,93160.78
2023-05-07T02:47:36.618Z,93161.84
2023-05-07T02:49:08.252Z,93165.44
2023-05-07T02:50:39.803Z,93161.25
2023-05-07T02:52:11.354Z,93161.34
2023-05-07T02:53:42.862Z,93161.84
2023-05-07T02:55:14.586Z,93164.25
2023-05-07T02:56:46.124Z,93162.28
2023-05-07T02:58:17.748Z,93168.63
2023-05-07T02:59:49.233Z,93172.41
2023-05-07T03:01:22.130Z,93173.81
2023-05-07T03:02:53.861Z,93170.81
2023-05-07T03:04:25.473Z,93179.19
2023-05-07T03:05:57.535Z,93166.22
2023-05-07T03:07:29.166Z,93173.47
2023-05-07T03:09:01.134Z,93178.97
2023-05-07T03:10:32.760Z,93168.59
2023-05-07T03:12:04.387Z,93174.38
2023-05-07T03:13:36.034Z,93177.13
2023-05-07T03:15:07.982Z,93178.34
2023-05-07T03:16:39.619Z,93176.53
2023-05-07T03:18:11.775Z,93184.28
2023-05-07T03:19:43.465Z,93180.00
2023-05-07T03:21:15.122Z,93178.41
2023-05-07T03:22:46.843Z,93183.59
2023-05-07T03:24:18.400Z,93184.09
2023-05-07T03:25:50.838Z,93187.38
2023-05-07T03:27:22.518Z,93186.84
2023-05-07T03:28:54.112Z,93189.84
2023-05-07T03:30:25.826Z,93182.06
2023-05-07T03:31:58.934Z,93187.16
2023-05-07T03:33:31.099Z,93182.38
2023-05-07T03:35:03.490Z,93186.16
2023-05-07T03:36:35.035Z,93189.03
2023-05-07T03:38:06.543Z,93188.84
2023-05-07T03:39:38.063Z,93188.06
2023-05-07T03:41:10.376Z,93197.66
2023-05-07T03:42:42.483Z,93189.84
2023-05-07T03:44:14.019Z,93202.69
2023-05-07T03:45:45.616Z,93203.69
2023-05-07T03:47:17.230Z,93204.69
2023-05-07T03:48:48.888Z,93195.63
2023-05-07T03:50:21.307Z,93199.31
2023-05-07T03:51:52.895Z,93200.09
2023-05-07T03:53:24.463Z,93194.72
2023-05-07T03:54:56.130Z,93195.63
2023-05-07T03:56:28.860Z,93205.75
2023-05-07T03:58:01.302Z,93203.09
2023-05-07T03:59:33.026Z,93204.09
2023-05-07T04:01:04.869Z,93206.69
2023-05-07T04:02:36.559Z,93215.75
2023-05-07T04:04:08.373Z,93213.06
2023-05-07T04:05:40.171Z,93211.38
2023-05-07T04:07:11.687Z,93218.53
2023-05-07T04:08:44.012Z,93220.84
2023-05-07T04:10:15.747Z,93220.16
2023-05-07T04:11:47.351Z,93226.94
2023-05-07T04:13:19.008Z,93225.66
2023-05-07T04:14:50.975Z,93238.31
2023-05-07T04:16:22.701Z,93241.59
2023-05-07T04:17:54.419Z,93242.22
2023-05-07T04:19:26.366Z,93243.09
2023-05-07T04:20:58.278Z,93241.28
2023-05-07T04:22:30.115Z,93240.59
2023-05-07T04:24:01.792Z,93235.31
2023-05-07T04:25:33.399Z,93241.34
2023-05-07T04:27:05.643Z,93243.66
2023-05-07T04:28:37.523Z,93247.50
2023-05-07T04:30:09.418Z,93247.59
2023-05-07T04:31:41.422Z,93250.47
2023-05-07T04:33:14.319Z,93247.97
2023-05-07T04:34:46.183Z,93249.28
2023-05-07T04:36:17.832Z,93248.94
2023-05-07T04:37:49.630Z,93246.25
2023-05-07T04:39:21.848Z,93256.22
2023-05-07T04:40:54.154Z,93253.47
2023-05-07T04:42:26.148Z,93252.56
2023-05-07T04:44:00.174Z,93260.72
2023-05-07T04:45:32.107Z,93253.69
2023-05-07T04:47:03.720Z,93258.03
2023-05-07T04:48:35.247Z,93256.19
2023-05-07T04:50:07.813Z,93255.16
2023-05-07T04:51:39.766Z,93259.03
2023-05-07T04:53:11.393Z,93265.59
2023-05-07T04:54:43.074Z,93258.81
2023-05-07T04:56:14.634Z,93264.50
2023-05-07T04:57:46.390Z,93264.56
2023-05-07T04:59:17.921Z,93266.41
2023-05-07T05:00:49.469Z,93266.28
2023-05-07T05:02:21.243Z,93267.53
2023-05-07T05:03:53.539Z,93268.03
2023-05-07T05:05:25.069Z,93269.63
2023-05-07T05:06:57.261Z,93264.25
2023-05-07T05:08:29.254Z,93271.72
2023-05-07T05:10:00.812Z,93258.41
2023-05-07T05:11:32.798Z,93264.34
2023-05-07T05:13:04.380Z,93268.69
2023-05-07T05:14:36.085Z,93256.03
2023-05-07T05:16:07.935Z,93266.72
2023-05-07T05:17:39.749Z,93267.38
2023-05-07T05:19:11.493Z,93261.75
2023-05-07T05:20:43.639Z,93261.44
2023-05-07T05:22:15.206Z,93270.97
2023-05-07T05:23:47.023Z,93266.69
2023-05-07T05:25:18.627Z,93263.38
2023-05-07T05:26:50.524Z,93270.97
2023-05-07T05:28:22.780Z,93274.66
2023-05-07T05:29:54.501Z,93269.09
2023-05-07T05:31:26.164Z,93264.19
2023-05-07T05:32:58.089Z,93271.88
2023-05-07T05:34:30.966Z,93268.69
2023-05-07T05:36:03.216Z,93274.56
2023-05-07T05:37:34.852Z,93267.41
2023-05-07T05:39:07.125Z,93270.78
2023-05-07T05:40:38.778Z,93270.47
2023-05-07T05:42:10.379Z,93272.38
2023-05-07T05:43:42.108Z,93279.69
2023-05-07T05:45:13.801Z,93269.38
2023-05-07T05:46:45.850Z,93265.38
2023-05-07T05:48:17.565Z,93272.22
2023-05-07T05:49:49.260Z,93274.75
2023-05-07T05:51:22.062Z,93269.97
2023-05-07T05:52:53.657Z,93272.81
2023-05-07T05:54:25.343Z,93267.91
2023-05-07T05:55:56.881Z,93269.47
2023-05-07T05:57:28.968Z,93272.13
2023-05-07T05:59:00.787Z,93267.84
2023-05-07T06:00:33.072Z,93273.53
2023-05-07T06:02:04.709Z,93273.81
2023-05-07T06:03:36.779Z,93273.47
2023-05-07T06:05:09.013Z,93282.31
2023-05-07T06:06:41.104Z,93276.16
2023-05-07T06:08:12.627Z,93276.25
2023-05-07T06:09:44.255Z,93281.47
2023-05-07T06:11:15.851Z,93276.72
2023-05-07T06:12:47.526Z,93278.25
2023-05-07T06:14:19.155Z,93278.84
2023-05-07T06:15:51.432Z,93277.66
2023-05-07T06:17:23.358Z,93282.13
2023-05-07T06:18:56.844Z,93280.06
2023-05-07T06:20:29.025Z,93280.69
2023-05-07T06:22:02.485Z,93268.00
2023-05-07T06:23:34.092Z,93270.22
2023-05-07T06:25:06.706Z,93272.47
2023-05-07T06:26:38.810Z,93259.88
2023-05-07T06:28:12.562Z,93267.72
2023-05-07T06:29:44.700Z,93265.59
2023-05-07T06:31:17.445Z,93274.13
2023-05-07T06:32:49.477Z,93262.72
2023-05-07T06:34:21.216Z,93262.47
2023-05-07T06:35:53.429Z,93263.09
2023-05-07T06:37:25.060Z,93260.03
2023-05-07T06:38:56.843Z,93266.97
2023-05-07T06:40:29.083Z,93257.38
2023-05-07T06:42:01.662Z,93252.88
2023-05-07T06:43:33.723Z,93246.88
2023-05-07T06:45:05.558Z,93244.88
2023-05-07T06:46:37.381Z,93246.78
2023-05-07T06:48:09.139Z,93237.84
2023-05-07T06:49:40.886Z,93240.47
2023-05-07T06:51:12.587Z,93246.41
2023-05-07T06:52:44.341Z,93247.66
2023-05-07T06:54:16.258Z,93248.34
2023-05-07T06:55:48.086Z,93244.38
2023-05-07T06:57:19.790Z,93242.56
2023-05-07T06:58:51.421Z,93239.22
2023-05-07T07:00:23.188Z,93242.81
2023-05-07T07:01:54.816Z,93246.44
2023-05-07T07:03:26.649Z,93239.09
2023-05-07T07:04:58.638Z,93245.25
2023-05-07T07:06:32.913Z,93241.91
2023-05-07T07:08:05.143Z,93235.53
2023-05-07T07:09:36.832Z,93234.75
2023-05-07T07:11:09.563Z,93237.13
2023-05-07T07:12:41.827Z,93236.84
2023-05-07T07:14:14.782Z,93234.50
2023-05-07T07:15:46.826Z,93236.69
2023-05-07T07:17:18.488Z,93247.75
2023-05-07T07:18:50.664Z,93240.38
2023-05-07T07:20:22.743Z,93237.06
2023-05-07T07:21:54.277Z,93244.00
2023-05-07T07:23:26.633Z,93239.34
2023-05-07T07:24:58.171Z,93231.94
2023-05-07T07:26:30.588Z,93235.34
2023-05-07T07:28:02.386Z,93233.50
2023-05-07T07:29:34.072Z,93238.78
2023-05-07T07:31:05.884Z,93238.00
2023-05-07T07:32:37.882Z,93235.94
2023-05-07T07:34:09.637Z,93239.34
2023-05-07T07:35:41.455Z,93240.47
2023-05-07T07:37:13.263Z,93239.25
2023-05-07T07:38:45.081Z,93238.88
2023-05-07T07:40:16.695Z,93242.16
2023-05-07T07:41:48.366Z,93245.25
2023-05-07T07:43:20.107Z,93238.34
2023-05-07T07:44:51.823Z,93244.16
2023-05-07T07:46:23.643Z,93241.19
2023-05-07T07:47:55.432Z,93239.75
2023-05-07T07:49:27.521Z,93242.25
2023-05-07T07:50:59.365Z,93244.47
2023-05-07T07:52:31.073Z,93244.41
2023-05-07T07:54:04.184Z,93242.59
2023-05-07T07:55:39.960Z,93241.56
2023-05-07T07:57:11.560Z,93241.56
2023-05-07T07:58:43.339Z,93244.16
2023-05-07T08:00:15.273Z,93247.41
2023-05-07T08:01:47.065Z,93244.34
2023-05-07T08:03:18.983Z,93243.69
2023-05-07T08:04:51.065Z,93238.56
2023-05-07T08:06:23.365Z,93236.28
2023-05-07T08:07:55.671Z,93239.56
2023-05-07T08:09:27.486Z,93235.22
2023-05-07T08:10:59.112Z,93237.47
2023-05-07T08:12:30.819Z,93238.00
2023-05-07T08:14:02.498Z,93236.69
2023-05-07T08:15:34.546Z,93244.28
2023-05-07T08:17:06.156Z,93238.25
2023-05-07T08:18:37.816Z,93243.56
2023-05-07T08:20:10.360Z,93235.06
2023-05-07T08:21:42.281Z,93235.56
2023-05-07T08:23:13.982Z,93238.22
2023-05-07T08:24:46.090Z,93235.91
2023-05-07T08:26:17.774Z,93235.50
2023-05-07T08:27:49.370Z,93242.00
2023-05-07T08:29:21.140Z,93237.59
2023-05-07T08:30:53.092Z,93241.13
2023-05-07T08:32:25.126Z,93234.91
2023-05-07T08:33:57.652Z,93237.59
2023-05-07T08:35:29.673Z,93235.88
2023-05-07T08:37:01.841Z,93234.66
2023-05-07T08:38:33.692Z,93229.59
2023-05-07T08:40:06.718Z,93232.28
2023-05-07T08:41:41.793Z,93231.69
2023-05-07T08:43:16.185Z,93231.47
2023-05-07T08:44:50.695Z,93230.38
2023-05-07T08:46:22.787Z,93216.56
2023-05-07T08:47:57.442Z,93215.31
2023-05-07T08:49:29.646Z,93220.56
2023-05-07T08:51:01.984Z,93218.31
2023-05-07T08:52:33.582Z,93217.94
2023-05-07T08:54:06.020Z,93219.16
2023-05-07T08:55:37.583Z,93223.84
2023-05-07T08:57:09.468Z,93212.56
2023-05-07T08:58:41.439Z,93209.88
2023-05-07T09:00:13.415Z,93216.66
2023-05-07T09:01:45.734Z,93215.47
2023-05-07T09:03:17.851Z,93216.25
2023-05-07T09:04:51.711Z,93211.56
2023-05-07T09:06:24.042Z,93214.81
2023-05-07T09:07:58.368Z,93205.94
2023-05-07T09:09:30.414Z,93204.88
2023-05-07T09:11:02.339Z,93206.88
2023-05-07T09:12:36.295Z,93212.03
2023-05-07T09:14:09.535Z,93210.84
2023-05-07T09:15:41.601Z,93208.06
2023-05-07T09:17:13.496Z,93207.59
2023-05-07T09:18:46.117Z,93201.34
2023-05-07T09:20:17.852Z,93206.03
2023-05-07T09:21:49.516Z,93204.47
2023-05-07T09:23:21.703Z,93200.13
2023-05-07T09:24:53.422Z,93194.50
2023-05-07T09:26:25.795Z,93198.81
2023-05-07T09:27:57.683Z,93195.69
2023-05-07T09:29:36.249Z,93193.34
2023-05-07T09:31:08.697Z,93196.53
2023-05-07T09:32:40.434Z,93194.66
2023-05-07T09:34:12.121Z,93192.28
2023-05-07T09:35:43.905Z,93190.28
2023-05-07T09:37:15.809Z,93189.97
2023-05-07T09:38:47.445Z,93188.06
2023-05-07T09:40:26.714Z,93191.59
2023-05-07T09:42:00.167Z,93185.03
2023-05-07T09:43:35.840Z,93189.06
2023-05-07T09:45:07.702Z,93184.78
2023-05-07T09:46:40.449Z,93182.78
2023-05-07T09:48:12.163Z,93184.00
2023-05-07T09:49:43.914Z,93180.47
2023-05-07T09:51:32.534Z,93178.53
2023-05-07T09:53:04.685Z,93176.22
2023-05-07T09:54:39.021Z,93175.47
2023-05-07T09:56:10.666Z,93170.81
2023-05-07T09:57:42.312Z,93168.44
2023-05-07T09:59:15.177Z,93170.44
2023-05-07T10:00:46.801Z,93167.69
2023-05-07T10:02:18.457Z,93168.09
2023-05-07T10:03:51.361Z,93171.25
2023-05-07T10:05:23.961Z,93161.84
2023-05-07T10:06:56.488Z,93168.53
2023-05-07T10:08:28.487Z,93163.06
2023-05-07T10:10:06.427Z,93172.88
2023-05-07T10:11:38.250Z,93165.00
2023-05-07T10:13:12.109Z,93164.66
2023-05-07T10:14:43.809Z,93166.63
2023-05-07T10:16:15.732Z,93155.22
2023-05-07T10:17:47.415Z,93154.00
2023-05-07T10:19:19.674Z,93161.06
2023-05-07T10:20:51.426Z,93157.16
2023-05-07T10:22:23.602Z,93156.38
2023-05-07T10:23:59.691Z,93145.78
2023-05-07T10:25:32.316Z,93153.66
2023-05-07T10:27:05.486Z,93152.84
2023-05-07T10:28:40.288Z,93151.22
2023-05-07T10:30:11.891Z,93152.00
2023-05-07T10:31:57.559Z,93144.50
2023-05-07T10:33:30.603Z,93143.72
2023-05-07T10:35:04.396Z,93144.47
2023-05-07T10:36:38.394Z,93131.88
2023-05-07T10:38:10.305Z,93142.84
2023-05-07T10:39:41.917Z,93142.00
2023-05-07T10:41:13.537Z,93134.88
2023-05-07T10:42:55.103Z,93139.56
2023-05-07T10:44:30.255Z,93136.44
2023-05-07T10:46:20.666Z,93130.91
2023-05-07T10:48:27.952Z,93134.84
2023-05-07T10:50:06.994Z,93141.16
2023-05-07T10:51:38.868Z,93131.69
2023-05-07T10:53:19.651Z,93132.50
2023-05-07T10:55:11.702Z,93130.13
2023-05-07T10:56:48.757Z,93129.66
2023-05-07T10:58:31.391Z,93131.06
2023-05-07T11:00:35.541Z,93133.31
2023-05-07T11:02:12.495Z,93141.34
2023-05-07T11:04:02.914Z,93137.59
2023-05-07T11:05:37.516Z,93134.78
2023-05-07T11:07:10.347Z,93138.75
2023-05-07T11:08:54.097Z,93139.56
2023-05-07T11:10:46.190Z,93141.13
2023-05-07T11:12:18.372Z,93141.91
2023-05-07T11:13:50.655Z,93134.72
2023-05-07T11:15:35.585Z,93137.00
2023-05-07T11:17:07.402Z,93133.03
2023-05-07T11:18:49.384Z,93129.91
2023-05-07T11:20:21.735Z,93130.81
2023-05-07T11:21:55.363Z,93128.47
2023-05-07T11:23:36.403Z,93127.25
2023-05-07T11:25:08.149Z,93134.22
2023-05-07T11:26:51.728Z,93135.38
2023-05-07T11:28:23.335Z,93129.84
2023-05-07T11:29:55.287Z,93130.19
2023-05-07T11:31:28.454Z,93125.00
2023-05-07T11:33:00.490Z,93126.16
2023-05-07T11:34:32.945Z,93120.03
2023-05-07T11:36:04.934Z,93119.41
2023-05-07T11:37:36.579Z,93113.03
2023-05-07T11:39:14.196Z,93117.78
2023-05-07T11:40:55.136Z,93115.59
2023-05-07T11:42:28.685Z,93114.59
2023-05-07T11:44:01.044Z,93110.66
2023-05-07T11:45:32.829Z,93115.22
2023-05-07T11:47:04.916Z,93111.06
2023-05-07T11:48:36.939Z,93108.78
2023-05-07T11:50:09.369Z,93104.84
2023-05-07T11:51:43.280Z,93113.03
2023-05-07T11:53:15.191Z,93110.66
2023-05-07T11:54:53.186Z,93109.91
2023-05-07T11:56:24.933Z,93109.91
2023-05-07T11:57:56.696Z,93111.78
2023-05-07T11:59:28.636Z,93111.34
2023-05-07T12:01:00.489Z,93110.06
2023-05-07T12:02:32.798Z,93110.38
2023-05-07T12:04:05.085Z,93107.28
2023-05-07T12:05:38.496Z,93111.06
2023-05-07T12:07:16.302Z,93106.44
2023-05-07T12:08:48.497Z,93106.44
2023-05-07T12:10:20.967Z,93099.63
2023-05-07T12:11:52.911Z,93093.72
2023-05-07T12:13:25.495Z,93090.25
2023-05-07T12:14:57.131Z,93089.84
2023-05-07T12:16:29.151Z,93089.41
2023-05-07T12:18:01.067Z,93096.41
2023-05-07T12:19:33.367Z,93093.50
2023-05-07T12:21:05.546Z,93087.72
2023-05-07T12:22:38.033Z,93084.94
2023-05-07T12:24:09.833Z,93091.31
2023-05-07T12:25:44.373Z,93081.91
2023-05-07T12:27:16.377Z,93086.66
2023-05-07T12:28:48.369Z,93079.94
2023-05-07T12:30:19.908Z,93085.06
2023-05-07T12:31:51.769Z,93085.84
2023-05-07T12:33:26.400Z,93071.97
2023-05-07T12:34:58.236Z,93065.50
2023-05-07T12:36:37.460Z,93066.88
2023-05-07T12:38:13.035Z,93062.13
2023-05-07T12:39:51.573Z,93063.78
2023-05-07T12:41:27.772Z,93059.19
2023-05-07T12:43:00.854Z,93058.06
2023-05-07T12:44:33.262Z,93063.28
2023-05-07T12:46:08.312Z,93056.63
2023-05-07T12:47:40.954Z,93053.84
2023-05-07T12:49:12.645Z,93049.88
2023-05-07T12:50:46.692Z,93044.78
2023-05-07T12:52:18.338Z,93052.97
2023-05-07T12:53:50.014Z,93055.63
2023-05-07T12:55:21.989Z,93046.88
2023-05-07T12:57:01.353Z,93047.97
2023-05-07T12:58:34.342Z,93047.66
2023-05-07T13:00:07.056Z,93039.06
2023-05-07T13:01:38.875Z,93035.53
2023-05-07T13:03:10.990Z,93046.16
2023-05-07T13:04:43.109Z,93039.06
2023-05-07T13:06:14.760Z,93041.84
2023-05-07T13:07:58.885Z,93037.50
2023-05-07T13:09:30.482Z,93040.53
2023-05-07T13:11:04.803Z,93034.47
2023-05-07T13:12:37.225Z,93036.28
2023-05-07T13:14:09.370Z,93037.16
2023-05-07T13:15:41.064Z,93031.97
2023-05-07T13:17:12.761Z,93021.16
2023-05-07T13:18:47.064Z,93028.56
2023-05-07T13:20:18.834Z,93019.75
2023-05-07T13:21:51.625Z,93023.13
2023-05-07T13:23:23.830Z,93028.41
2023-05-07T13:24:55.749Z,93027.53
2023-05-07T13:26:27.661Z,93014.13
2023-05-07T13:28:09.531Z,93023.63
2023-05-07T13:29:42.188Z,93017.25
2023-05-07T13:31:13.952Z,93024.47
2023-05-07T13:32:46.733Z,93022.34
2023-05-07T13:34:18.349Z,93025.78
2023-05-07T13:35:49.975Z,93023.59
2023-05-07T13:37:21.945Z,93021.78
2023-05-07T13:38:53.668Z,93027.84
2023-05-07T13:40:25.444Z,93024.09
2023-05-07T13:41:57.166Z,93025.34
2023-05-07T13:43:28.737Z,93017.50
2023-05-07T13:45:00.401Z,93016.31
2023-05-07T13:46:32.693Z,93015.63
2023-05-07T13:48:04.579Z,93015.34
2023-05-07T13:49:36.323Z,93020.13
2023-05-07T13:51:08.005Z,93014.22
2023-05-07T13:52:41.870Z,93023.31
2023-05-07T13:54:13.694Z,93021.28
2023-05-07T13:55:46.214Z,93010.97
2023-05-07T13:57:17.979Z,93016.81
2023-05-07T13:58:59.310Z,93019.47
2023-05-07T14:00:31.427Z,93020.13
2023-05-07T14:02:03.008Z,93023.59
2023-05-07T14:03:35.200Z,93019.56
2023-05-07T14:05:07.167Z,93021.53
2023-05-07T14:06:38.718Z,93020.72
2023-05-07T14:08:10.489Z,93024.56
2023-05-07T14:09:42.050Z,93026.94
2023-05-07T14:11:13.620Z,93021.41
2023-05-07T14:12:46.024Z,93026.13
2023-05-07T14:14:17.981Z,93026.44
2023-05-07T14:15:50.366Z,93024.06
2023-05-07T14:17:24.446Z,93033.22
2023-05-07T14:18:57.933Z,93026.22
2023-05-07T14:20:31.634Z,93027.44
2023-05-07T14:22:03.808Z,93024.78
2023-05-07T14:23:35.403Z,93023.59
2023-05-07T14:25:07.561Z,93024.00
2023-05-07T14:26:39.410Z,93026.38
2023-05-07T14:28:11.217Z,93021.72
2023-05-07T14:29:43.801Z,93022.59
2023-05-07T14:31:15.648Z,93018.19
2023-05-07T14:32:47.314Z,93015.03
2023-05-07T14:34:18.862Z,93008.72
2023-05-07T14:35:51.293Z,93006.28
2023-05-07T14:37:22.992Z,93010.63
2023-05-07T14:38:57.992Z,93008.56
2023-05-07T14:40:29.631Z,93012.78
2023-05-07T14:42:01.596Z,93013.44
2023-05-07T14:43:33.847Z,93004.31
2023-05-07T14:45:05.869Z,93001.97
2023-05-07T14:46:37.685Z,93010.84
2023-05-07T14:48:10.582Z,93014.19
2023-05-07T14:49:43.076Z,93014.25
2023-05-07T14:51:14.917Z,93011.94
2023-05-07T14:52:46.613Z,93013.16
2023-05-07T14:54:18.480Z,93010.03
2023-05-07T14:55:50.573Z,93012.38
2023-05-07T14:57:22.824Z,93008.84
2023-05-07T14:58:54.663Z,93013.94
2023-05-07T15:00:26.780Z,93013.22
2023-05-07T15:01:59.237Z,93009.28
2023-05-07T15:03:31.617Z,93008.50
2023-05-07T15:05:03.659Z,93012.84
2023-05-07T15:06:35.467Z,93013.63
2023-05-07T15:08:07.171Z,93007.50
2023-05-07T15:09:39.163Z,93009.47
2023-05-07T15:11:11.172Z,93014.53
2023-05-07T15:12:42.804Z,93019.59
2023-05-07T15:14:14.425Z,93009.34
2023-05-07T15:15:47.162Z,93008.63
2023-05-07T15:17:18.732Z,93009.06
2023-05-07T15:18:50.401Z,93004.91
2023-05-07T15:20:22.135Z,93007.47
2023-05-07T15:21:53.846Z,93011.03
2023-05-07T15:23:25.637Z,93012.22
2023-05-07T15:24:58.134Z,93010.69
2023-05-07T15:26:30.347Z,93011.88
2023-05-07T15:28:02.055Z,93008.34
2023-05-07T15:29:33.663Z,93005.22
2023-05-07T15:31:06.509Z,93001.69
2023-05-07T15:32:39.447Z,92998.53
2023-05-07T15:34:11.228Z,92998.94
2023-05-07T15:35:43.077Z,93002.06
2023-05-07T15:37:14.781Z,92996.56
2023-05-07T15:38:46.407Z,92996.53
2023-05-07T15:40:18.193Z,92996.13
2023-05-07T15:41:50.024Z,92992.53
2023-05-07T15:43:21.880Z,93000.72
2023-05-07T15:44:53.427Z,92997.91
2023-05-07T15:46:25.718Z,92996.69
2023-05-07T15:47:57.357Z,92995.44
2023-05-07T15:49:29.284Z,92998.97
2023-05-07T15:51:00.952Z,92993.44
2023-05-07T15:52:32.709Z,92996.59
2023-05-07T15:54:04.665Z,92992.66
2023-05-07T15:55:37.001Z,92987.50
2023-05-07T15:57:09.780Z,92988.69
2023-05-07T15:58:41.392Z,92989.53
2023-05-07T16:00:14.308Z,92986.84
2023-05-07T16:01:46.258Z,92985.75
2023-05-07T16:03:19.100Z,92979.53
2023-05-07T16:04:50.877Z,92978.75
2023-05-07T16:06:23.052Z,92980.78
2023-05-07T16:07:54.823Z,92976.06
2023-05-07T16:09:27.584Z,92987.47
2023-05-07T16:10:59.218Z,92979.22
2023-05-07T16:12:30.783Z,92982.75
2023-05-07T16:14:02.426Z,92980.38
2023-05-07T16:15:34.136Z,92974.88
2023-05-07T16:17:05.711Z,92973.34
2023-05-07T16:18:37.368Z,92971.41
2023-05-07T16:20:09.503Z,92970.97
2023-05-07T16:21:41.054Z,92971.38
2023-05-07T16:23:13.381Z,92976.91
2023-05-07T16:24:45.076Z,92974.19
2023-05-07T16:26:17.486Z,92973.84
2023-05-07T16:27:49.145Z,92972.28
2023-05-07T16:29:22.417Z,92976.63
2023-05-07T16:30:54.084Z,92970.75
2023-05-07T16:32:25.769Z,92968.78
2023-05-07T16:33:57.653Z,92966.81
2023-05-07T16:35:29.214Z,92971.53
2023-05-07T16:37:00.800Z,92972.72
2023-05-07T16:38:34.759Z,92970.38
2023-05-07T16:40:07.728Z,92964.88
2023-05-07T16:41:39.439Z,92973.94
2023-05-07T16:43:11.700Z,92970.81
2023-05-07T16:44:43.286Z,92973.56
2023-05-07T16:46:14.961Z,92968.88
2023-05-07T16:47:46.588Z,92978.69
2023-05-07T16:49:18.234Z,92975.97
2023-05-07T16:50:49.949Z,92969.31
2023-05-07T16:52:21.617Z,92982.66
2023-05-07T16:53:53.629Z,92984.25
2023-05-07T16:55:25.211Z,92976.00
2023-05-07T16:56:57.755Z,92978.00
2023-05-07T16:58:29.418Z,92987.41
2023-05-07T17:00:01.062Z,92981.91
2023-05-07T17:01:33.248Z,92984.63
2023-05-07T17:03:05.089Z,92981.50
2023-05-07T17:04:36.788Z,92981.88
2023-05-07T17:06:15.386Z,92984.19
2023-05-07T17:07:47.264Z,92986.47
2023-05-07T17:09:19.227Z,92979.38
2023-05-07T17:10:51.330Z,92989.56
2023-05-07T17:12:23.470Z,92991.09
2023-05-07T17:13:55.098Z,92986.00
2023-05-07T17:15:26.825Z,92991.81
2023-05-07T17:16:58.437Z,92996.09
2023-05-07T17:18:30.092Z,92991.72
2023-05-07T17:20:01.603Z,92989.59
2023-05-07T17:21:33.225Z,92993.00
2023-05-07T17:23:04.974Z,93002.00
2023-05-07T17:24:36.672Z,92995.69
2023-05-07T17:26:14.629Z,93000.75
2023-05-07T17:27:46.308Z,93003.41
2023-05-07T17:29:19.324Z,92997.03
2023-05-07T17:30:50.930Z,93003.88
2023-05-07T17:32:22.568Z,92999.44
2023-05-07T17:33:54.387Z,93001.28
2023-05-07T17:35:27.539Z,93010.84
2023-05-07T17:36:59.080Z,93000.81
2023-05-07T17:38:31.328Z,93003.25
2023-05-07T17:40:03.284Z,93007.28
2023-05-07T17:41:36.334Z,93008.28
2023-05-07T17:43:08.148Z,93013.94
2023-05-07T17:44:40.090Z,93016.09
2023-05-07T17:46:11.730Z,93014.34
2023-05-07T17:47:43.422Z,93022.00
2023-05-07T17:49:15.542Z,93017.53
2023-05-07T17:50:47.301Z,93019.75
2023-05-07T17:52:18.866Z,93011.50
2023-05-07T17:53:50.396Z,93020.81
2023-05-07T17:55:22.014Z,93018.00
2023-05-07T17:56:53.533Z,93019.38
2023-05-07T17:58:27.154Z,93013.41
2023-05-07T17:59:59.629Z,93021.56
2023-05-07T18:01:33.564Z,93019.13
2023-05-07T18:03:05.251Z,93020.22
2023-05-07T18:04:37.456Z,93027.56
2023-05-07T18:06:10.156Z,93017.31
2023-05-07T18:07:42.491Z,93025.06